バンクーバー の空港の天気 - METARとTAF

バンクーバー国際空港 ( CYVR / YVR ) - カナダ ブリティッシュコロンビア州バンクーバー
飛行場実況気象(Metar)
観測時間01/19 01:00 PST (01/19 09:00 UTC)
風向・風速東 9m/s
視程10km以上
天気現象
全天の8割程度の雲 雲底高度 550m
全天を覆う雲 雲底高度 1040m
気温7℃
湿度93%
気圧1008.3hPa
METARCYVR 190900Z 10017KT 15SM BKN018 OVC034 07/06 A2977 RMK SC6SC2 SLP083
過去の天気等 Google飛行場航空写真 Wunderground天気予報

過去48時間のMETAR

飛行場予報(TAF)
発表時間: 1/19 00:38 PST (1/19 08:38 UTC)
予報対象時間: 19日1時 PST ~ 20日4時 PST
風向・風速東 6m/s 瞬間風速 11m/s
視程10km以上
天気現象弱い雨
全天の4割程度の雲 雲底高度 460m
全天を覆う雲 雲底高度 910m
19日1時 PST ~ 19日3時 PST に一時的に
視程8050m
天気現象弱い雨 もや
全天を覆う雲 雲底高度 460m
19日3時 PST から
風向・風速南 6m/s
視程10km以上
少しの雲 雲底高度 610m
全天の4割程度の雲 雲底高度 1220m
19日3時 PST ~ 19日11時 PST に一時的に
全天の4割程度の雲 雲底高度 610m
全天の8割程度の雲 雲底高度 1220m
19日11時 PST から
風向・風速南 6m/s
視程10km以上
全天の4割程度の雲 雲底高度 610m
全天の8割程度の雲 雲底高度 1520m
19日11時 PST ~ 19日22時 PST に一時的に
視程10km以上
天気現象弱いしゅう雨
全天の8割程度の雲 雲底高度 610m
19日16時 PST ~ 19日18時 PST に徐々に
風向・風速東南東 4m/s
19日22時 PST から
風向・風速東南東 4m/s
視程10km以上
全天の4割程度の雲 雲底高度 1220m
19日22時 PST ~ 20日4時 PST に一時的に
全天の8割程度の雲 雲底高度 1220m
TAF CYVR 190838Z 1909/2012 10012G22KT P6SM -RA SCT015 OVC030
TEMPO 1909/1911 5SM -RA BR OVC015
FM191100 17012KT P6SM FEW020 SCT040
TEMPO 1911/1919 SCT020 BKN040
FM191900 18012KT P6SM SCT020 BKN050
TEMPO 1919/2006 P6SM -SHRA BKN020
BECMG 2000/2002 12008KT
FM200600 12008KT P6SM SCT040
TEMPO 2006/2012 BKN040 RMK NXT FCST BY 191200Z